Time,TemperatureF,DewpointF,PressureIn,WindDirection,WindDirectionDegrees,WindSpeedMPH,WindSpeedGustMPH,Humidity,HourlyPrecipIn,Conditions,Clouds,dailyrainin,SoftwareType,DateUTC
2013-04-13 00:00:00,49.3,37.2,29.77,West,269,7.0,7.0,63,0.00,,CLR,-99.99,VWS V12.06,2013-04-13 04:00:00,
2013-04-13 00:02:00,47.9,35.5,29.75,North,355,6.0,18.0,62,0.00,,CLR,-99.99,VWS V12.06,2013-04-13 04:02:00,
2013-04-13 00:30:00,49.3,36.4,29.79,North,5,7.0,7.0,61,0.00,,CLR,-99.99,VWS V12.06,2013-04-13 04:30:00,
2013-04-13 01:00:00,48.8,35.5,29.77,NW,317,13.0,13.0,60,0.00,,CLR,-99.99,VWS V12.06,2013-04-13 05:00:00,
2013-04-13 01:30:00,48.3,35.5,29.76,North,349,7.0,13.0,61,0.00,,CLR,-99.99,VWS V12.06,2013-04-13 05:30:00,
2013-04-13 02:00:00,48.1,34.9,29.79,WNW,282,11.0,12.0,60,0.00,,CLR,-99.99,VWS V12.06,2013-04-13 06:00:00,
2013-04-13 02:30:00,47.5,34.7,29.79,NW,317,15.0,16.0,61,0.00,,CLR,-99.99,VWS V12.06,2013-04-13 06:30:00,
2013-04-13 03:00:00,47.6,34.0,29.79,NW,316,13.0,13.0,59,0.00,,CLR,-99.99,VWS V12.06,2013-04-13 07:00:00,
2013-04-13 03:30:00,47.3,34.1,29.81,SW,229,4.0,4.0,60,0.00,,CLR,-99.99,VWS V12.06,2013-04-13 07:30:00,
2013-04-13 04:00:00,47.3,33.7,29.81,WNW,290,4.0,7.0,59,0.00,,CLR,-99.99,VWS V12.06,2013-04-13 08:00:00,
2013-04-13 04:30:00,47.7,34.1,29.82,WSW,247,3.0,3.0,59,0.00,,CLR,-99.99,VWS V12.06,2013-04-13 08:30:00,
2013-04-13 05:00:00,47.4,34.2,29.82,West,271,3.0,4.0,60,0.00,,CLR,-99.99,VWS V12.06,2013-04-13 09:00:00,
2013-04-13 05:30:00,47.0,34.7,29.83,WSW,252,1.0,2.0,62,0.00,,CLR,-99.99,VWS V12.06,2013-04-13 09:30:00,
2013-04-13 06:00:00,47.0,34.7,29.85,SW,227,3.0,3.0,62,0.00,,CLR,-99.99,VWS V12.06,2013-04-13 10:00:00,
2013-04-13 06:30:00,47.1,34.8,29.85,NNW,340,4.0,4.0,62,0.00,,CLR,-99.99,VWS V12.06,2013-04-13 10:30:00,
2013-04-13 07:00:00,47.2,34.9,29.87,WSW,258,1.0,4.0,62,0.00,,CLR,-99.99,VWS V12.06,2013-04-13 11:00:00,
2013-04-13 07:30:00,47.4,35.0,29.89,NNW,341,3.0,3.0,62,0.00,,CLR,-99.99,VWS V12.06,2013-04-13 11:30:00,
2013-04-13 08:00:00,48.4,35.6,29.91,WSW,257,4.0,4.0,61,0.00,,CLR,-99.99,VWS V12.06,2013-04-13 12:00:00,
2013-04-13 08:30:00,49.9,36.2,29.92,SSW,198,3.0,3.0,59,0.00,,CLR,-99.99,VWS V12.06,2013-04-13 12:30:00,
2013-04-13 09:00:00,52.2,38.3,29.93,SW,214,5.0,5.0,59,0.00,,CLR,-99.99,VWS V12.06,2013-04-13 13:00:00,
2013-04-13 09:30:00,51.9,36.3,29.93,SW,225,4.0,4.0,55,0.00,,SCT030,-99.99,VWS V12.06,2013-04-13 13:30:00,
2013-04-13 10:00:00,53.3,36.6,29.94,WSW,253,2.0,4.0,53,0.00,,CLR,-99.99,VWS V12.06,2013-04-13 14:00:00,
2013-04-13 10:30:00,54.5,37.2,29.95,SSW,213,3.0,5.0,52,0.00,,CLR,-99.99,VWS V12.06,2013-04-13 14:30:00,
2013-04-13 11:00:00,56.1,36.7,29.96,SSE,153,4.0,4.0,48,0.00,,CLR,-99.99,VWS V12.06,2013-04-13 15:00:00,
2013-04-13 11:32:00,51.4,35.8,29.97,WNW,296,6.0,11.0,55,0.00,,CLR,-99.99,VWS V12.06,2013-04-13 15:32:00,
2013-04-13 12:00:00,60.1,35.1,29.97,WNW,283,7.0,7.0,39,0.00,,CLR,-99.99,VWS V12.06,2013-04-13 16:00:00,
2013-04-13 12:32:00,55.2,31.9,29.96,NNE,26,8.0,13.0,41,0.00,,CLR,-99.99,VWS V12.06,2013-04-13 16:32:00,
2013-04-13 13:00:00,61.9,28.5,29.97,WSW,248,7.0,10.0,28,0.00,,CLR,-99.99,VWS V12.06,2013-04-13 17:00:00,
2013-04-13 13:30:00,63.9,30.2,29.95,WNW,283,9.0,9.0,28,0.00,,CLR,-99.99,VWS V12.06,2013-04-13 17:30:00,
2013-04-13 14:02:00,58.5,29.5,29.96,WNW,298,11.0,17.0,33,0.00,,CLR,-99.99,VWS V12.06,2013-04-13 18:02:00,
2013-04-13 14:30:00,65.5,30.7,29.96,West,273,9.0,9.0,27,0.00,,CLR,-99.99,VWS V12.06,2013-04-13 18:30:00,
2013-04-13 14:32:00,58.1,30.6,29.96,West,260,6.0,17.0,35,0.00,,CLR,-99.99,VWS V12.06,2013-04-13 18:32:00,
2013-04-13 15:00:00,65.2,33.0,29.95,WSW,258,4.0,4.0,30,0.00,,CLR,-99.99,VWS V12.06,2013-04-13 19:00:00,
2013-04-13 15:30:00,63.2,32.9,29.95,WSW,248,2.0,2.0,32,0.00,,CLR,-99.99,VWS V12.06,2013-04-13 19:30:00,
2013-04-13 15:32:00,63.8,34.2,29.93,WNW,301,3.0,3.0,33,0.00,,CLR,-99.99,VWS V12.06,2013-04-13 19:32:00,
2013-04-13 16:00:00,64.3,33.8,29.95,West,271,11.0,11.0,32,0.00,,CLR,-99.99,VWS V12.06,2013-04-13 20:00:00,
2013-04-13 16:30:00,65.4,34.8,29.94,WNW,298,6.0,6.0,32,0.00,,CLR,-99.99,VWS V12.06,2013-04-13 20:30:00,
2013-04-13 17:00:00,63.9,33.5,29.94,NNW,333,1.0,2.0,32,0.00,,CLR,-99.99,VWS V12.06,2013-04-13 21:00:00,
2013-04-13 17:30:00,65.3,35.5,29.94,WNW,284,4.0,4.0,33,0.00,,CLR,-99.99,VWS V12.06,2013-04-13 21:30:00,
2013-04-13 18:00:00,64.3,35.4,29.95,West,266,5.0,5.0,34,0.00,,CLR,-99.99,VWS V12.06,2013-04-13 22:00:00,
2013-04-13 18:30:00,63.4,32.3,29.96,West,266,2.0,2.0,31,0.00,,CLR,-99.99,VWS V12.06,2013-04-13 22:30:00,
2013-04-13 19:00:00,62.7,32.4,29.97,WNW,289,8.0,9.0,32,0.00,,CLR,-99.99,VWS V12.06,2013-04-13 23:00:00,
2013-04-13 19:30:00,60.1,32.4,29.97,WNW,301,6.0,7.0,35,0.00,,CLR,-99.99,VWS V12.06,2013-04-13 23:30:00,
2013-04-13 20:00:00,58.4,30.9,29.98,West,264,0.0,0.0,35,0.00,,CLR,-99.99,VWS V12.06,2013-04-14 00:00:00,
2013-04-13 20:30:00,57.4,30.0,29.99,West,281,3.0,5.0,35,0.00,,CLR,-99.99,VWS V12.06,2013-04-14 00:30:00,
2013-04-13 21:00:00,56.9,31.6,30.00,West,281,4.0,5.0,38,0.00,,CLR,-99.99,VWS V12.06,2013-04-14 01:00:00,
2013-04-13 21:30:00,56.0,31.4,30.01,West,261,7.0,7.0,39,0.00,,CLR,-99.99,VWS V12.06,2013-04-14 01:30:00,
2013-04-13 22:00:00,55.4,32.1,30.02,NNW,327,8.0,8.0,41,0.00,,CLR,-99.99,VWS V12.06,2013-04-14 02:00:00,
2013-04-13 22:30:00,54.9,32.8,30.03,West,278,8.0,8.0,43,0.00,,CLR,-99.99,VWS V12.06,2013-04-14 02:30:00,
2013-04-13 23:00:00,54.1,32.7,30.03,West,267,3.0,3.0,44,0.00,,CLR,-99.99,VWS V12.06,2013-04-14 03:00:00,
2013-04-13 23:30:00,53.5,33.2,30.03,WSW,245,4.0,4.0,46,0.00,,CLR,-99.99,VWS V12.06,2013-04-14 03:30:00,